Fulton, MD (20759)

5:32 PM EDT on October 20, 2014 (GMT -0400)
Maple Lawn, Diamond Cut Fitness | Change Station
CLOSE
Current Station
Personal Weather Station
Location: Laurel, MD
Elevation: 420 ft
Nearby Weather Stations

Elev 420 ft 39.14 °N, 76.91 °W | Updated 10 minutes ago

Clear
Clear
63.9 °F
Feels Like 63.9 °F
N
0.0
Wind Variable Wind from SSE

Today
High -- | Low -- °F
--% Chance of Precip.
Yesterday
High -- | Low -- °F
Precip. -- in
7:22 AM 6:21 PM
Waning Crescent, 9% visible
Pressure 29.97 in
Visibility 10.0 miles
Clouds Clear
Dew Point 49 °F
Humidity 59%
Rainfall 0.00 in
Snow Depth Not available.
UV 0 out of 12
Pollen 1.50 out of 12
Air Quality Not available.
Flu Activity Sporadic
METAR KFME 202127Z AUTO 18003KT 10SM CLR 17/07 A2997 RMK AO1

More Conditions Fewer Conditions

Pressure 29.97 in
Visibility 10.0 miles
Clouds Clear
Dew Point 49 °F
Humidity 59%
Rainfall 0.00 in
Snow Depth Not available.
UV 0 out of 12
Pollen 1.50 out of 12
Air Quality Not available.
Flu Activity Sporadic
METAR KFME 202127Z AUTO 18003KT 10SM CLR 17/07 A2997 RMK AO1

More Conditions Fewer Conditions

10-Day Weather Forecast

Almanac

Astronomy

Oct. 20, 2014 Rise Set
Actual Time 7:22 AM EDT 6:21 PM EDT
Civil Twilight 6:55 AM EDT 6:49 PM EDT
Nautical Twilight 6:24 AM EDT 7:20 PM EDT
Astronomical Twilight 5:53 AM EDT 7:51 PM EDT
Moon 4:10 AM EDT 4:42 PM EDT
Length of Visible Light 11h 53m
Length of Day
10h 59m
Waning Crescent, 9% of the Moon is Illuminated
Today
Waning Crescent
Oct 23
New
Oct 30
First Quarter
Nov 6
Full
Nov 14
Last Quarter

Today's Extremes

State Highs State Lows

Community

WunderPhotos

Upload Photos

1,763,525 photos uploaded!

WunderBlogs® & News

Nearby

Snow Depth

Station Depth Elevation
No new snow has been reported.

Earthquake Activity

City Distance Mag. Time & Date
No recent earthquake activity has been reported nearby.
Minimum magnitude displayed is 2.5.

Coastal Water Temperatures

Place Temperature
Baltimore, MD 66.9 °F
Tolchester Beach, MD 63.0 °F
Washington, DC 64.0 °F

Nearby Weather Stations